sensor_id;sensor_type;location;lat;lon;timestamp;P1;durP1;ratioP1;P2;durP2;ratioP2
18340;SDS011;9296;48.084;16.352;2024-02-04T00:01:02;2.47;;;1.90;;
18340;SDS011;9296;48.084;16.352;2024-02-04T00:03:29;3.63;;;1.85;;
18340;SDS011;9296;48.084;16.352;2024-02-04T00:05:57;2.50;;;1.77;;
18340;SDS011;9296;48.084;16.352;2024-02-04T00:08:24;1.67;;;1.55;;
18340;SDS011;9296;48.084;16.352;2024-02-04T00:10:51;2.47;;;1.95;;
18340;SDS011;9296;48.084;16.352;2024-02-04T00:13:21;1.95;;;1.60;;
18340;SDS011;9296;48.084;16.352;2024-02-04T00:15:53;2.10;;;1.80;;
18340;SDS011;9296;48.084;16.352;2024-02-04T00:18:32;2.95;;;1.70;;
18340;SDS011;9296;48.084;16.352;2024-02-04T00:21:01;3.08;;;2.05;;
18340;SDS011;9296;48.084;16.352;2024-02-04T00:23:28;2.40;;;1.90;;
18340;SDS011;9296;48.084;16.352;2024-02-04T00:25:58;1.80;;;1.70;;
18340;SDS011;9296;48.084;16.352;2024-02-04T00:28:25;2.13;;;1.80;;
18340;SDS011;9296;48.084;16.352;2024-02-04T00:30:58;1.85;;;1.65;;
18340;SDS011;9296;48.084;16.352;2024-02-04T00:33:26;2.10;;;1.90;;
18340;SDS011;9296;48.084;16.352;2024-02-04T00:35:54;2.00;;;1.80;;
18340;SDS011;9296;48.084;16.352;2024-02-04T00:38:21;2.35;;;1.83;;
18340;SDS011;9296;48.084;16.352;2024-02-04T00:40:51;1.90;;;1.70;;
18340;SDS011;9296;48.084;16.352;2024-02-04T00:43:19;2.30;;;2.10;;
18340;SDS011;9296;48.084;16.352;2024-02-04T00:45:53;3.65;;;2.15;;
18340;SDS011;9296;48.084;16.352;2024-02-04T00:48:23;2.20;;;2.00;;
18340;SDS011;9296;48.084;16.352;2024-02-04T00:50:50;1.95;;;1.75;;
18340;SDS011;9296;48.084;16.352;2024-02-04T00:53:17;2.50;;;1.73;;
18340;SDS011;9296;48.084;16.352;2024-02-04T00:55:47;1.80;;;1.70;;
18340;SDS011;9296;48.084;16.352;2024-02-04T01:01:18;2.17;;;1.83;;
18340;SDS011;9296;48.084;16.352;2024-02-04T01:03:46;3.08;;;1.83;;
18340;SDS011;9296;48.084;16.352;2024-02-04T01:06:14;1.63;;;1.50;;
18340;SDS011;9296;48.084;16.352;2024-02-04T01:08:42;1.50;;;1.40;;
18340;SDS011;9296;48.084;16.352;2024-02-04T01:11:09;1.90;;;1.70;;
18340;SDS011;9296;48.084;16.352;2024-02-04T01:13:54;1.50;;;1.40;;
18340;SDS011;9296;48.084;16.352;2024-02-04T01:16:22;2.38;;;1.50;;
18340;SDS011;9296;48.084;16.352;2024-02-04T01:18:53;2.30;;;1.60;;
18340;SDS011;9296;48.084;16.352;2024-02-04T01:21:20;2.22;;;1.50;;
18340;SDS011;9296;48.084;16.352;2024-02-04T01:23:48;2.85;;;1.35;;
18340;SDS011;9296;48.084;16.352;2024-02-04T01:26:15;1.70;;;1.60;;
18340;SDS011;9296;48.084;16.352;2024-02-04T01:31:46;2.00;;;1.50;;
18340;SDS011;9296;48.084;16.352;2024-02-04T01:34:15;1.90;;;1.50;;
18340;SDS011;9296;48.084;16.352;2024-02-04T01:36:42;1.70;;;1.50;;
18340;SDS011;9296;48.084;16.352;2024-02-04T01:39:09;1.60;;;1.40;;
18340;SDS011;9296;48.084;16.352;2024-02-04T01:41:36;1.50;;;1.40;;
18340;SDS011;9296;48.084;16.352;2024-02-04T01:44:22;1.40;;;1.30;;
18340;SDS011;9296;48.084;16.352;2024-02-04T01:46:51;2.03;;;1.45;;
18340;SDS011;9296;48.084;16.352;2024-02-04T01:49:19;1.25;;;1.15;;
18340;SDS011;9296;48.084;16.352;2024-02-04T01:51:46;1.83;;;1.55;;
18340;SDS011;9296;48.084;16.352;2024-02-04T01:54:14;2.13;;;1.50;;
18340;SDS011;9296;48.084;16.352;2024-02-04T01:56:42;1.98;;;1.60;;
18340;SDS011;9296;48.084;16.352;2024-02-04T01:59:11;1.70;;;1.60;;
18340;SDS011;9296;48.084;16.352;2024-02-04T02:01:40;2.67;;;1.70;;
18340;SDS011;9296;48.084;16.352;2024-02-04T02:04:09;1.50;;;1.40;;
18340;SDS011;9296;48.084;16.352;2024-02-04T02:06:39;2.10;;;1.90;;
18340;SDS011;9296;48.084;16.352;2024-02-04T02:09:08;2.53;;;1.70;;
18340;SDS011;9296;48.084;16.352;2024-02-04T02:11:40;3.17;;;2.10;;
18340;SDS011;9296;48.084;16.352;2024-02-04T02:17:12;2.20;;;2.00;;
18340;SDS011;9296;48.084;16.352;2024-02-04T02:19:44;3.53;;;2.30;;
18340;SDS011;9296;48.084;16.352;2024-02-04T02:22:18;2.40;;;2.20;;
18340;SDS011;9296;48.084;16.352;2024-02-04T02:24:48;3.28;;;2.70;;
18340;SDS011;9296;48.084;16.352;2024-02-04T02:27:54;2.50;;;2.25;;
18340;SDS011;9296;48.084;16.352;2024-02-04T02:30:21;2.42;;;2.15;;
18340;SDS011;9296;48.084;16.352;2024-02-04T02:32:49;3.00;;;2.70;;
18340;SDS011;9296;48.084;16.352;2024-02-04T02:35:17;3.53;;;2.60;;
18340;SDS011;9296;48.084;16.352;2024-02-04T02:37:46;2.40;;;2.20;;
18340;SDS011;9296;48.084;16.352;2024-02-04T02:40:17;3.65;;;2.50;;
18340;SDS011;9296;48.084;16.352;2024-02-04T02:48:55;2.47;;;2.28;;
18340;SDS011;9296;48.084;16.352;2024-02-04T02:51:23;2.40;;;2.00;;
18340;SDS011;9296;48.084;16.352;2024-02-04T02:53:50;2.20;;;2.00;;
18340;SDS011;9296;48.084;16.352;2024-02-04T02:56:18;2.35;;;1.90;;
18340;SDS011;9296;48.084;16.352;2024-02-04T02:59:04;2.65;;;2.13;;
18340;SDS011;9296;48.084;16.352;2024-02-04T03:01:31;2.35;;;2.00;;
18340;SDS011;9296;48.084;16.352;2024-02-04T03:03:58;2.10;;;1.90;;
18340;SDS011;9296;48.084;16.352;2024-02-04T03:06:25;2.17;;;1.60;;
18340;SDS011;9296;48.084;16.352;2024-02-04T03:08:53;1.95;;;1.80;;
18340;SDS011;9296;48.084;16.352;2024-02-04T03:11:21;1.92;;;1.70;;
18340;SDS011;9296;48.084;16.352;2024-02-04T03:13:49;1.80;;;1.60;;
18340;SDS011;9296;48.084;16.352;2024-02-04T03:16:16;1.50;;;1.38;;
18340;SDS011;9296;48.084;16.352;2024-02-04T03:18:45;1.58;;;1.40;;
18340;SDS011;9296;48.084;16.352;2024-02-04T03:21:13;1.75;;;1.50;;
18340;SDS011;9296;48.084;16.352;2024-02-04T03:23:41;1.75;;;1.50;;
18340;SDS011;9296;48.084;16.352;2024-02-04T03:26:08;1.75;;;1.30;;
18340;SDS011;9296;48.084;16.352;2024-02-04T03:28:37;1.40;;;1.30;;
18340;SDS011;9296;48.084;16.352;2024-02-04T03:31:04;1.98;;;1.30;;
18340;SDS011;9296;48.084;16.352;2024-02-04T03:33:31;1.40;;;1.30;;
18340;SDS011;9296;48.084;16.352;2024-02-04T03:35:58;1.30;;;1.20;;
18340;SDS011;9296;48.084;16.352;2024-02-04T03:38:25;1.65;;;1.40;;
18340;SDS011;9296;48.084;16.352;2024-02-04T03:40:53;1.73;;;1.48;;
18340;SDS011;9296;48.084;16.352;2024-02-04T03:43:21;1.98;;;1.40;;
18340;SDS011;9296;48.084;16.352;2024-02-04T03:45:49;1.50;;;1.40;;
18340;SDS011;9296;48.084;16.352;2024-02-04T03:48:16;1.88;;;1.58;;
18340;SDS011;9296;48.084;16.352;2024-02-04T03:50:45;2.25;;;1.40;;
18340;SDS011;9296;48.084;16.352;2024-02-04T03:53:11;1.77;;;1.40;;
18340;SDS011;9296;48.084;16.352;2024-02-04T03:55:38;1.85;;;1.65;;
18340;SDS011;9296;48.084;16.352;2024-02-04T03:58:05;1.73;;;1.55;;
18340;SDS011;9296;48.084;16.352;2024-02-04T04:00:33;1.75;;;1.60;;
18340;SDS011;9296;48.084;16.352;2024-02-04T04:03:02;1.60;;;1.50;;
18340;SDS011;9296;48.084;16.352;2024-02-04T04:05:29;1.73;;;1.60;;
18340;SDS011;9296;48.084;16.352;2024-02-04T04:07:56;1.77;;;1.48;;
18340;SDS011;9296;48.084;16.352;2024-02-04T04:10:23;1.73;;;1.50;;
18340;SDS011;9296;48.084;16.352;2024-02-04T04:12:50;1.63;;;1.33;;
18340;SDS011;9296;48.084;16.352;2024-02-04T04:15:17;1.38;;;1.27;;
18340;SDS011;9296;48.084;16.352;2024-02-04T04:17:45;1.60;;;1.50;;
18340;SDS011;9296;48.084;16.352;2024-02-04T04:20:17;1.52;;;1.42;;
18340;SDS011;9296;48.084;16.352;2024-02-04T04:22:47;1.60;;;1.50;;
18340;SDS011;9296;48.084;16.352;2024-02-04T04:25:14;1.50;;;1.40;;
18340;SDS011;9296;48.084;16.352;2024-02-04T04:27:42;1.50;;;1.20;;
18340;SDS011;9296;48.084;16.352;2024-02-04T04:30:09;1.48;;;1.35;;
18340;SDS011;9296;48.084;16.352;2024-02-04T04:32:36;1.40;;;1.30;;
18340;SDS011;9296;48.084;16.352;2024-02-04T04:35:04;1.70;;;1.60;;
18340;SDS011;9296;48.084;16.352;2024-02-04T04:37:33;1.55;;;1.45;;
18340;SDS011;9296;48.084;16.352;2024-02-04T04:40:00;3.15;;;1.48;;
18340;SDS011;9296;48.084;16.352;2024-02-04T04:42:27;2.10;;;1.73;;
18340;SDS011;9296;48.084;16.352;2024-02-04T04:44:55;1.55;;;1.40;;
18340;SDS011;9296;48.084;16.352;2024-02-04T04:47:22;1.60;;;1.50;;
18340;SDS011;9296;48.084;16.352;2024-02-04T04:49:49;1.90;;;1.48;;
18340;SDS011;9296;48.084;16.352;2024-02-04T04:52:16;1.50;;;1.40;;
18340;SDS011;9296;48.084;16.352;2024-02-04T04:54:45;1.92;;;1.30;;
18340;SDS011;9296;48.084;16.352;2024-02-04T04:57:12;2.15;;;1.50;;
18340;SDS011;9296;48.084;16.352;2024-02-04T05:02:43;1.95;;;1.50;;
18340;SDS011;9296;48.084;16.352;2024-02-04T05:05:10;1.60;;;1.50;;
18340;SDS011;9296;48.084;16.352;2024-02-04T05:07:38;2.65;;;1.60;;
18340;SDS011;9296;48.084;16.352;2024-02-04T05:10:07;1.63;;;1.48;;
18340;SDS011;9296;48.084;16.352;2024-02-04T05:12:35;1.80;;;1.30;;
18340;SDS011;9296;48.084;16.352;2024-02-04T05:15:03;1.85;;;1.40;;
18340;SDS011;9296;48.084;16.352;2024-02-04T05:17:31;1.70;;;1.30;;
18340;SDS011;9296;48.084;16.352;2024-02-04T05:20:00;1.77;;;1.48;;
18340;SDS011;9296;48.084;16.352;2024-02-04T05:22:41;1.45;;;1.33;;
18340;SDS011;9296;48.084;16.352;2024-02-04T05:25:10;2.47;;;1.20;;
18340;SDS011;9296;48.084;16.352;2024-02-04T05:27:37;1.80;;;1.27;;
18340;SDS011;9296;48.084;16.352;2024-02-04T05:30:05;1.58;;;1.30;;
18340;SDS011;9296;48.084;16.352;2024-02-04T05:32:32;1.80;;;1.40;;
18340;SDS011;9296;48.084;16.352;2024-02-04T05:34:59;1.58;;;1.48;;
18340;SDS011;9296;48.084;16.352;2024-02-04T05:37:27;2.00;;;1.80;;
18340;SDS011;9296;48.084;16.352;2024-02-04T05:39:54;1.85;;;1.58;;
18340;SDS011;9296;48.084;16.352;2024-02-04T05:42:41;2.55;;;1.60;;
18340;SDS011;9296;48.084;16.352;2024-02-04T05:45:08;1.70;;;1.60;;
18340;SDS011;9296;48.084;16.352;2024-02-04T05:47:36;2.85;;;1.92;;
18340;SDS011;9296;48.084;16.352;2024-02-04T05:50:03;1.90;;;1.70;;
18340;SDS011;9296;48.084;16.352;2024-02-04T05:52:30;3.88;;;1.92;;
18340;SDS011;9296;48.084;16.352;2024-02-04T05:54:58;2.50;;;2.00;;
18340;SDS011;9296;48.084;16.352;2024-02-04T06:03:33;1.95;;;1.70;;
18340;SDS011;9296;48.084;16.352;2024-02-04T06:06:00;2.00;;;1.80;;
18340;SDS011;9296;48.084;16.352;2024-02-04T06:08:28;2.33;;;1.90;;
18340;SDS011;9296;48.084;16.352;2024-02-04T06:10:55;2.50;;;1.80;;
18340;SDS011;9296;48.084;16.352;2024-02-04T06:13:22;2.40;;;2.20;;
18340;SDS011;9296;48.084;16.352;2024-02-04T06:15:49;2.72;;;2.00;;
18340;SDS011;9296;48.084;16.352;2024-02-04T06:18:18;2.28;;;2.08;;
18340;SDS011;9296;48.084;16.352;2024-02-04T06:20:47;2.00;;;1.75;;
18340;SDS011;9296;48.084;16.352;2024-02-04T06:23:14;3.00;;;2.15;;
18340;SDS011;9296;48.084;16.352;2024-02-04T06:25:43;2.78;;;2.20;;
18340;SDS011;9296;48.084;16.352;2024-02-04T06:28:11;2.10;;;1.90;;
18340;SDS011;9296;48.084;16.352;2024-02-04T06:30:39;2.10;;;1.90;;
18340;SDS011;9296;48.084;16.352;2024-02-04T06:33:06;3.50;;;2.35;;
18340;SDS011;9296;48.084;16.352;2024-02-04T06:35:33;2.50;;;2.30;;
18340;SDS011;9296;48.084;16.352;2024-02-04T06:38:02;3.28;;;2.20;;
18340;SDS011;9296;48.084;16.352;2024-02-04T06:40:30;1.80;;;1.70;;
18340;SDS011;9296;48.084;16.352;2024-02-04T06:46:01;1.80;;;1.70;;
18340;SDS011;9296;48.084;16.352;2024-02-04T06:48:28;2.20;;;1.90;;
18340;SDS011;9296;48.084;16.352;2024-02-04T06:50:56;3.58;;;2.20;;
18340;SDS011;9296;48.084;16.352;2024-02-04T06:53:25;3.03;;;2.35;;
18340;SDS011;9296;48.084;16.352;2024-02-04T06:55:52;2.25;;;2.05;;
18340;SDS011;9296;48.084;16.352;2024-02-04T06:58:20;2.13;;;1.92;;
18340;SDS011;9296;48.084;16.352;2024-02-04T07:14:05;3.05;;;1.60;;
18340;SDS011;9296;48.084;16.352;2024-02-04T07:16:33;1.98;;;1.63;;
18340;SDS011;9296;48.084;16.352;2024-02-04T07:19:00;2.65;;;1.70;;
18340;SDS011;9296;48.084;16.352;2024-02-04T07:21:29;2.15;;;1.65;;
18340;SDS011;9296;48.084;16.352;2024-02-04T07:23:58;1.77;;;1.58;;
18340;SDS011;9296;48.084;16.352;2024-02-04T07:26:26;2.05;;;1.50;;
18340;SDS011;9296;48.084;16.352;2024-02-04T07:34:25;1.65;;;1.55;;
18340;SDS011;9296;48.084;16.352;2024-02-04T07:36:53;1.73;;;1.52;;
18340;SDS011;9296;48.084;16.352;2024-02-04T07:39:34;2.10;;;1.58;;
18340;SDS011;9296;48.084;16.352;2024-02-04T07:42:08;1.80;;;1.50;;
18340;SDS011;9296;48.084;16.352;2024-02-04T08:14:56;1.15;;;1.00;;
18340;SDS011;9296;48.084;16.352;2024-02-04T08:23:18;1.00;;;0.90;;
18340;SDS011;9296;48.084;16.352;2024-02-04T08:26:09;2.00;;;1.42;;
18340;SDS011;9296;48.084;16.352;2024-02-04T08:34:41;1.00;;;0.73;;
18340;SDS011;9296;48.084;16.352;2024-02-04T08:37:22;1.00;;;0.80;;
18340;SDS011;9296;48.084;16.352;2024-02-04T08:39:49;1.50;;;1.40;;
18340;SDS011;9296;48.084;16.352;2024-02-04T08:42:24;1.33;;;0.75;;
18340;SDS011;9296;48.084;16.352;2024-02-04T08:47:21;0.93;;;0.70;;
18340;SDS011;9296;48.084;16.352;2024-02-04T08:49:57;0.60;;;0.60;;
18340;SDS011;9296;48.084;16.352;2024-02-04T08:52:34;0.93;;;0.60;;
18340;SDS011;9296;48.084;16.352;2024-02-04T09:05:43;0.57;;;0.57;;
18340;SDS011;9296;48.084;16.352;2024-02-04T09:29:19;0.57;;;0.40;;
18340;SDS011;9296;48.084;16.352;2024-02-04T09:32:03;0.85;;;0.82;;
18340;SDS011;9296;48.084;16.352;2024-02-04T09:39:47;0.52;;;0.50;;
18340;SDS011;9296;48.084;16.352;2024-02-04T09:50:20;0.50;;;0.50;;
18340;SDS011;9296;48.084;16.352;2024-02-04T09:53:02;0.50;;;0.50;;
18340;SDS011;9296;48.084;16.352;2024-02-04T09:55:30;1.65;;;0.50;;
18340;SDS011;9296;48.084;16.352;2024-02-04T09:58:24;0.68;;;0.30;;
18340;SDS011;9296;48.084;16.352;2024-02-04T10:00:52;0.70;;;0.35;;
18340;SDS011;9296;48.084;16.352;2024-02-04T10:03:21;0.47;;;0.30;;
18340;SDS011;9296;48.084;16.352;2024-02-04T10:05:50;0.80;;;0.20;;
18340;SDS011;9296;48.084;16.352;2024-02-04T10:08:17;0.50;;;0.40;;
18340;SDS011;9296;48.084;16.352;2024-02-04T10:10:45;0.40;;;0.40;;
18340;SDS011;9296;48.084;16.352;2024-02-04T10:13:13;0.80;;;0.40;;
18340;SDS011;9296;48.084;16.352;2024-02-04T10:15:40;0.43;;;0.40;;
18340;SDS011;9296;48.084;16.352;2024-02-04T10:18:10;0.40;;;0.40;;
18340;SDS011;9296;48.084;16.352;2024-02-04T10:23:18;0.40;;;0.40;;
18340;SDS011;9296;48.084;16.352;2024-02-04T10:25:46;0.30;;;0.30;;
18340;SDS011;9296;48.084;16.352;2024-02-04T10:38:58;0.57;;;0.40;;
18340;SDS011;9296;48.084;16.352;2024-02-04T10:44:33;0.43;;;0.40;;
18340;SDS011;9296;48.084;16.352;2024-02-04T10:47:23;1.33;;;0.90;;
18340;SDS011;9296;48.084;16.352;2024-02-04T10:52:48;0.30;;;0.30;;
18340;SDS011;9296;48.084;16.352;2024-02-04T10:55:51;0.22;;;0.22;;
18340;SDS011;9296;48.084;16.352;2024-02-04T10:58:24;0.60;;;0.50;;
18340;SDS011;9296;48.084;16.352;2024-02-04T11:01:12;0.40;;;0.30;;
18340;SDS011;9296;48.084;16.352;2024-02-04T11:03:40;0.45;;;0.32;;
18340;SDS011;9296;48.084;16.352;2024-02-04T11:06:08;0.32;;;0.20;;
18340;SDS011;9296;48.084;16.352;2024-02-04T11:08:35;0.30;;;0.20;;
18340;SDS011;9296;48.084;16.352;2024-02-04T11:11:05;0.70;;;0.30;;
18340;SDS011;9296;48.084;16.352;2024-02-04T11:13:33;0.70;;;0.40;;
18340;SDS011;9296;48.084;16.352;2024-02-04T11:26:12;1.20;;;1.10;;
18340;SDS011;9296;48.084;16.352;2024-02-04T11:34:15;0.40;;;0.30;;
18340;SDS011;9296;48.084;16.352;2024-02-04T11:48:14;0.57;;;0.30;;
18340;SDS011;9296;48.084;16.352;2024-02-04T11:50:55;0.30;;;0.30;;
18340;SDS011;9296;48.084;16.352;2024-02-04T11:56:20;0.90;;;0.40;;
18340;SDS011;9296;48.084;16.352;2024-02-04T11:59:07;0.50;;;0.40;;
18340;SDS011;9296;48.084;16.352;2024-02-04T12:01:34;0.40;;;0.40;;
18340;SDS011;9296;48.084;16.352;2024-02-04T12:04:14;0.40;;;0.40;;
18340;SDS011;9296;48.084;16.352;2024-02-04T12:06:42;0.30;;;0.30;;
18340;SDS011;9296;48.084;16.352;2024-02-04T12:09:09;0.45;;;0.40;;
18340;SDS011;9296;48.084;16.352;2024-02-04T12:11:37;0.70;;;0.60;;
18340;SDS011;9296;48.084;16.352;2024-02-04T12:14:06;0.77;;;0.68;;
18340;SDS011;9296;48.084;16.352;2024-02-04T12:19:23;0.63;;;0.60;;
18340;SDS011;9296;48.084;16.352;2024-02-04T12:21:52;1.33;;;0.70;;
18340;SDS011;9296;48.084;16.352;2024-02-04T12:24:20;1.10;;;0.68;;
18340;SDS011;9296;48.084;16.352;2024-02-04T12:26:48;0.55;;;0.50;;
18340;SDS011;9296;48.084;16.352;2024-02-04T12:29:15;0.52;;;0.45;;
18340;SDS011;9296;48.084;16.352;2024-02-04T12:31:42;0.75;;;0.50;;
18340;SDS011;9296;48.084;16.352;2024-02-04T12:34:10;5.25;;;0.80;;
18340;SDS011;9296;48.084;16.352;2024-02-04T12:36:39;0.50;;;0.50;;
18340;SDS011;9296;48.084;16.352;2024-02-04T12:39:25;0.55;;;0.50;;
18340;SDS011;9296;48.084;16.352;2024-02-04T12:41:52;0.70;;;0.47;;
18340;SDS011;9296;48.084;16.352;2024-02-04T12:44:19;0.57;;;0.55;;
18340;SDS011;9296;48.084;16.352;2024-02-04T12:49:29;2.40;;;1.02;;
18340;SDS011;9296;48.084;16.352;2024-02-04T12:54:43;1.10;;;0.80;;
18340;SDS011;9296;48.084;16.352;2024-02-04T12:57:10;1.90;;;0.75;;
18340;SDS011;9296;48.084;16.352;2024-02-04T13:02:19;1.88;;;0.85;;
18340;SDS011;9296;48.084;16.352;2024-02-04T13:07:44;1.45;;;1.10;;
18340;SDS011;9296;48.084;16.352;2024-02-04T13:10:20;1.20;;;1.10;;
18340;SDS011;9296;48.084;16.352;2024-02-04T13:12:57;1.52;;;1.13;;
18340;SDS011;9296;48.084;16.352;2024-02-04T13:19:05;1.63;;;1.10;;
18340;SDS011;9296;48.084;16.352;2024-02-04T13:21:53;1.98;;;1.25;;
18340;SDS011;9296;48.084;16.352;2024-02-04T13:27:06;2.85;;;1.33;;
18340;SDS011;9296;48.084;16.352;2024-02-04T13:29:34;2.83;;;1.42;;
18340;SDS011;9296;48.084;16.352;2024-02-04T13:32:01;1.35;;;1.25;;
18340;SDS011;9296;48.084;16.352;2024-02-04T13:34:29;2.65;;;1.20;;
18340;SDS011;9296;48.084;16.352;2024-02-04T13:36:56;2.42;;;1.40;;
18340;SDS011;9296;48.084;16.352;2024-02-04T13:39:24;2.15;;;1.30;;
18340;SDS011;9296;48.084;16.352;2024-02-04T13:41:51;3.03;;;1.30;;
18340;SDS011;9296;48.084;16.352;2024-02-04T13:44:20;1.25;;;1.10;;
18340;SDS011;9296;48.084;16.352;2024-02-04T13:46:47;1.52;;;1.00;;
18340;SDS011;9296;48.084;16.352;2024-02-04T13:49:14;2.33;;;1.20;;
18340;SDS011;9296;48.084;16.352;2024-02-04T13:51:51;1.17;;;0.90;;
18340;SDS011;9296;48.084;16.352;2024-02-04T13:54:21;1.65;;;1.10;;
18340;SDS011;9296;48.084;16.352;2024-02-04T13:56:49;2.05;;;1.17;;
18340;SDS011;9296;48.084;16.352;2024-02-04T13:59:17;4.95;;;1.27;;
18340;SDS011;9296;48.084;16.352;2024-02-04T14:01:48;1.60;;;1.10;;
18340;SDS011;9296;48.084;16.352;2024-02-04T14:04:17;1.10;;;1.00;;
18340;SDS011;9296;48.084;16.352;2024-02-04T14:06:48;1.60;;;1.10;;
18340;SDS011;9296;48.084;16.352;2024-02-04T14:09:15;2.42;;;1.20;;
18340;SDS011;9296;48.084;16.352;2024-02-04T14:11:42;1.63;;;1.10;;
18340;SDS011;9296;48.084;16.352;2024-02-04T14:14:10;1.77;;;1.20;;
18340;SDS011;9296;48.084;16.352;2024-02-04T14:16:37;1.58;;;1.13;;
18340;SDS011;9296;48.084;16.352;2024-02-04T14:19:08;1.88;;;1.23;;
18340;SDS011;9296;48.084;16.352;2024-02-04T14:21:38;1.83;;;1.20;;
18340;SDS011;9296;48.084;16.352;2024-02-04T14:24:06;1.63;;;1.10;;
18340;SDS011;9296;48.084;16.352;2024-02-04T14:26:33;1.45;;;0.98;;
18340;SDS011;9296;48.084;16.352;2024-02-04T14:29:03;1.95;;;1.23;;
18340;SDS011;9296;48.084;16.352;2024-02-04T14:31:30;1.73;;;1.02;;
18340;SDS011;9296;48.084;16.352;2024-02-04T14:33:58;2.17;;;1.10;;
18340;SDS011;9296;48.084;16.352;2024-02-04T14:36:29;1.90;;;1.10;;
18340;SDS011;9296;48.084;16.352;2024-02-04T14:44:36;2.33;;;1.15;;
18340;SDS011;9296;48.084;16.352;2024-02-04T14:47:03;2.15;;;1.13;;
18340;SDS011;9296;48.084;16.352;2024-02-04T14:49:31;2.95;;;1.23;;
18340;SDS011;9296;48.084;16.352;2024-02-04T14:51:59;1.08;;;0.93;;
18340;SDS011;9296;48.084;16.352;2024-02-04T14:54:27;2.50;;;1.10;;
18340;SDS011;9296;48.084;16.352;2024-02-04T14:56:54;1.30;;;1.10;;
18340;SDS011;9296;48.084;16.352;2024-02-04T14:59:22;2.13;;;1.20;;
18340;SDS011;9296;48.084;16.352;2024-02-04T15:01:49;1.60;;;1.00;;
18340;SDS011;9296;48.084;16.352;2024-02-04T15:04:16;2.10;;;1.10;;
18340;SDS011;9296;48.084;16.352;2024-02-04T15:06:43;1.77;;;1.20;;
18340;SDS011;9296;48.084;16.352;2024-02-04T15:34:17;1.55;;;1.00;;
18340;SDS011;9296;48.084;16.352;2024-02-04T15:39:26;1.50;;;1.00;;
18340;SDS011;9296;48.084;16.352;2024-02-04T15:42:07;1.85;;;1.20;;
18340;SDS011;9296;48.084;16.352;2024-02-04T15:44:35;1.10;;;0.98;;
18340;SDS011;9296;48.084;16.352;2024-02-04T15:49:54;1.52;;;1.00;;
18340;SDS011;9296;48.084;16.352;2024-02-04T15:52:24;1.63;;;0.80;;
18340;SDS011;9296;48.084;16.352;2024-02-04T15:55:06;1.88;;;0.90;;
18340;SDS011;9296;48.084;16.352;2024-02-04T15:57:33;0.77;;;0.70;;
18340;SDS011;9296;48.084;16.352;2024-02-04T16:00:15;1.20;;;0.80;;
18340;SDS011;9296;48.084;16.352;2024-02-04T16:05:20;1.10;;;0.90;;
18340;SDS011;9296;48.084;16.352;2024-02-04T16:07:48;3.10;;;1.00;;
18340;SDS011;9296;48.084;16.352;2024-02-04T16:10:16;1.33;;;0.70;;
18340;SDS011;9296;48.084;16.352;2024-02-04T16:12:58;3.53;;;0.95;;
18340;SDS011;9296;48.084;16.352;2024-02-04T16:18:47;1.27;;;0.80;;
18340;SDS011;9296;48.084;16.352;2024-02-04T16:21:16;1.58;;;1.00;;
18340;SDS011;9296;48.084;16.352;2024-02-04T16:26:10;1.23;;;0.90;;
18340;SDS011;9296;48.084;16.352;2024-02-04T16:29:05;1.55;;;0.90;;
18340;SDS011;9296;48.084;16.352;2024-02-04T16:31:47;1.00;;;0.90;;
18340;SDS011;9296;48.084;16.352;2024-02-04T16:34:25;1.70;;;0.90;;
18340;SDS011;9296;48.084;16.352;2024-02-04T16:36:54;1.15;;;1.00;;
18340;SDS011;9296;48.084;16.352;2024-02-04T16:39:21;1.10;;;0.93;;
18340;SDS011;9296;48.084;16.352;2024-02-04T16:41:56;3.22;;;1.17;;
18340;SDS011;9296;48.084;16.352;2024-02-04T16:44:23;3.35;;;1.00;;
18340;SDS011;9296;48.084;16.352;2024-02-04T16:49:27;1.30;;;1.20;;
18340;SDS011;9296;48.084;16.352;2024-02-04T16:54:48;1.38;;;1.10;;
18340;SDS011;9296;48.084;16.352;2024-02-04T17:09:13;1.98;;;1.40;;
18340;SDS011;9296;48.084;16.352;2024-02-04T17:11:46;1.60;;;1.00;;
18340;SDS011;9296;48.084;16.352;2024-02-04T17:14:14;1.45;;;1.10;;
18340;SDS011;9296;48.084;16.352;2024-02-04T17:22:11;1.25;;;0.77;;
18340;SDS011;9296;48.084;16.352;2024-02-04T17:24:43;1.00;;;0.80;;
18340;SDS011;9296;48.084;16.352;2024-02-04T17:27:12;1.60;;;0.90;;
18340;SDS011;9296;48.084;16.352;2024-02-04T17:29:40;1.00;;;0.90;;
18340;SDS011;9296;48.084;16.352;2024-02-04T17:32:09;1.58;;;0.88;;
18340;SDS011;9296;48.084;16.352;2024-02-04T17:34:37;1.75;;;0.93;;
18340;SDS011;9296;48.084;16.352;2024-02-04T17:37:06;1.38;;;0.88;;
18340;SDS011;9296;48.084;16.352;2024-02-04T17:39:35;0.82;;;0.80;;
18340;SDS011;9296;48.084;16.352;2024-02-04T17:42:05;0.73;;;0.60;;
18340;SDS011;9296;48.084;16.352;2024-02-04T17:44:37;1.58;;;0.70;;
18340;SDS011;9296;48.084;16.352;2024-02-04T17:47:06;2.08;;;0.70;;
18340;SDS011;9296;48.084;16.352;2024-02-04T17:49:33;1.95;;;0.80;;
18340;SDS011;9296;48.084;16.352;2024-02-04T17:52:01;1.13;;;0.70;;
18340;SDS011;9296;48.084;16.352;2024-02-04T17:54:30;2.03;;;0.80;;
18340;SDS011;9296;48.084;16.352;2024-02-04T17:56:59;1.10;;;0.52;;
18340;SDS011;9296;48.084;16.352;2024-02-04T17:59:27;2.03;;;0.57;;
18340;SDS011;9296;48.084;16.352;2024-02-04T18:04:59;0.70;;;0.60;;
18340;SDS011;9296;48.084;16.352;2024-02-04T18:07:27;1.15;;;0.88;;
18340;SDS011;9296;48.084;16.352;2024-02-04T18:09:54;1.05;;;0.70;;
18340;SDS011;9296;48.084;16.352;2024-02-04T18:12:23;1.00;;;0.60;;
18340;SDS011;9296;48.084;16.352;2024-02-04T18:14:51;3.80;;;2.10;;
18340;SDS011;9296;48.084;16.352;2024-02-04T18:17:20;1.48;;;0.55;;
18340;SDS011;9296;48.084;16.352;2024-02-04T18:19:51;0.60;;;0.50;;
18340;SDS011;9296;48.084;16.352;2024-02-04T18:22:26;1.42;;;0.55;;
18340;SDS011;9296;48.084;16.352;2024-02-04T18:27:29;0.82;;;0.50;;
18340;SDS011;9296;48.084;16.352;2024-02-04T18:32:35;0.40;;;0.40;;
18340;SDS011;9296;48.084;16.352;2024-02-04T18:35:35;0.80;;;0.63;;
18340;SDS011;9296;48.084;16.352;2024-02-04T19:08:52;0.52;;;0.52;;
18340;SDS011;9296;48.084;16.352;2024-02-04T19:11:20;1.25;;;0.60;;
18340;SDS011;9296;48.084;16.352;2024-02-04T19:13:48;0.90;;;0.85;;
18340;SDS011;9296;48.084;16.352;2024-02-04T19:16:24;0.88;;;0.60;;
18340;SDS011;9296;48.084;16.352;2024-02-04T19:21:25;1.30;;;0.93;;
18340;SDS011;9296;48.084;16.352;2024-02-04T19:23:57;1.77;;;1.55;;
18340;SDS011;9296;48.084;16.352;2024-02-04T19:26:27;1.70;;;1.60;;
18340;SDS011;9296;48.084;16.352;2024-02-04T19:28:55;1.50;;;1.40;;
18340;SDS011;9296;48.084;16.352;2024-02-04T19:34:36;1.40;;;1.30;;
18340;SDS011;9296;48.084;16.352;2024-02-04T19:37:05;2.15;;;1.30;;
18340;SDS011;9296;48.084;16.352;2024-02-04T19:39:34;2.42;;;1.40;;
18340;SDS011;9296;48.084;16.352;2024-02-04T19:42:02;1.42;;;1.33;;
18340;SDS011;9296;48.084;16.352;2024-02-04T19:44:29;2.15;;;1.40;;
18340;SDS011;9296;48.084;16.352;2024-02-04T19:47:15;2.67;;;1.45;;
18340;SDS011;9296;48.084;16.352;2024-02-04T19:49:43;1.42;;;1.30;;
18340;SDS011;9296;48.084;16.352;2024-02-04T19:52:10;1.33;;;1.23;;
18340;SDS011;9296;48.084;16.352;2024-02-04T19:54:43;1.30;;;1.20;;
18340;SDS011;9296;48.084;16.352;2024-02-04T19:57:10;2.42;;;1.42;;
18340;SDS011;9296;48.084;16.352;2024-02-04T19:59:38;2.10;;;1.15;;
18340;SDS011;9296;48.084;16.352;2024-02-04T20:09:57;2.10;;;0.88;;
18340;SDS011;9296;48.084;16.352;2024-02-04T20:17:36;1.65;;;0.82;;
18340;SDS011;9296;48.084;16.352;2024-02-04T20:20:04;1.58;;;0.95;;
18340;SDS011;9296;48.084;16.352;2024-02-04T20:22:41;3.25;;;1.10;;
18340;SDS011;9296;48.084;16.352;2024-02-04T20:28:09;1.50;;;0.90;;
18340;SDS011;9296;48.084;16.352;2024-02-04T20:30:56;1.02;;;0.90;;
18340;SDS011;9296;48.084;16.352;2024-02-04T20:33:28;1.67;;;1.00;;
18340;SDS011;9296;48.084;16.352;2024-02-04T20:46:30;1.13;;;0.70;;
18340;SDS011;9296;48.084;16.352;2024-02-04T20:48:57;1.83;;;0.88;;